sensor_id;sensor_type;location;lat;lon;timestamp;temperature;humidity
21244;DHT22;10780;50.942;4.028;2023-04-08T00:00:15;10.10;99.90
21244;DHT22;10780;50.942;4.028;2023-04-08T00:02:41;9.70;99.90
21244;DHT22;10780;50.942;4.028;2023-04-08T00:05:07;9.60;99.90
21244;DHT22;10780;50.942;4.028;2023-04-08T00:07:34;9.60;99.90
21244;DHT22;10780;50.942;4.028;2023-04-08T00:09:59;9.60;99.90
21244;DHT22;10780;50.942;4.028;2023-04-08T00:12:25;9.60;99.90
21244;DHT22;10780;50.942;4.028;2023-04-08T00:14:51;9.70;99.90
21244;DHT22;10780;50.942;4.028;2023-04-08T00:17:16;9.70;99.90
21244;DHT22;10780;50.942;4.028;2023-04-08T00:19:42;9.70;99.90
21244;DHT22;10780;50.942;4.028;2023-04-08T00:22:09;9.90;99.90
21244;DHT22;10780;50.942;4.028;2023-04-08T00:24:34;9.70;99.90
21244;DHT22;10780;50.942;4.028;2023-04-08T00:27:00;9.70;99.90
21244;DHT22;10780;50.942;4.028;2023-04-08T00:29:27;9.60;99.90
21244;DHT22;10780;50.942;4.028;2023-04-08T00:31:53;9.60;99.90
21244;DHT22;10780;50.942;4.028;2023-04-08T00:34:19;9.60;99.90
21244;DHT22;10780;50.942;4.028;2023-04-08T00:36:45;9.50;99.90
21244;DHT22;10780;50.942;4.028;2023-04-08T00:39:13;9.50;99.90
21244;DHT22;10780;50.942;4.028;2023-04-08T00:41:38;9.40;99.90
21244;DHT22;10780;50.942;4.028;2023-04-08T00:44:04;9.40;99.90
21244;DHT22;10780;50.942;4.028;2023-04-08T00:46:35;9.50;99.90
21244;DHT22;10780;50.942;4.028;2023-04-08T00:49:01;9.60;99.90
21244;DHT22;10780;50.942;4.028;2023-04-08T00:51:30;9.70;99.90
21244;DHT22;10780;50.942;4.028;2023-04-08T00:53:56;9.70;99.90
21244;DHT22;10780;50.942;4.028;2023-04-08T00:56:22;9.70;99.90
21244;DHT22;10780;50.942;4.028;2023-04-08T00:58:49;9.80;99.90
21244;DHT22;10780;50.942;4.028;2023-04-08T01:09:39;9.50;99.90
21244;DHT22;10780;50.942;4.028;2023-04-08T01:12:09;9.50;99.90
21244;DHT22;10780;50.942;4.028;2023-04-08T01:14:40;9.60;99.90
21244;DHT22;10780;50.942;4.028;2023-04-08T01:17:08;9.70;99.90
21244;DHT22;10780;50.942;4.028;2023-04-08T01:19:37;9.70;99.90
21244;DHT22;10780;50.942;4.028;2023-04-08T01:25:04;9.70;99.90
21244;DHT22;10780;50.942;4.028;2023-04-08T01:27:31;9.80;99.90
21244;DHT22;10780;50.942;4.028;2023-04-08T01:29:58;9.90;99.90
21244;DHT22;10780;50.942;4.028;2023-04-08T01:32:24;9.80;99.90
21244;DHT22;10780;50.942;4.028;2023-04-08T01:34:52;9.90;99.90
21244;DHT22;10780;50.942;4.028;2023-04-08T01:37:19;10.00;99.90
21244;DHT22;10780;50.942;4.028;2023-04-08T01:39:46;10.10;99.90
21244;DHT22;10780;50.942;4.028;2023-04-08T01:42:13;9.90;99.90
21244;DHT22;10780;50.942;4.028;2023-04-08T01:44:40;9.80;99.90
21244;DHT22;10780;50.942;4.028;2023-04-08T01:47:09;9.70;99.90
21244;DHT22;10780;50.942;4.028;2023-04-08T01:49:35;9.80;99.90
21244;DHT22;10780;50.942;4.028;2023-04-08T01:52:02;9.90;99.90
21244;DHT22;10780;50.942;4.028;2023-04-08T01:54:29;10.00;99.90
21244;DHT22;10780;50.942;4.028;2023-04-08T01:56:56;9.70;99.90
21244;DHT22;10780;50.942;4.028;2023-04-08T01:59:23;9.60;99.90
21244;DHT22;10780;50.942;4.028;2023-04-08T02:01:54;9.80;99.90
21244;DHT22;10780;50.942;4.028;2023-04-08T02:04:20;9.90;99.90
21244;DHT22;10780;50.942;4.028;2023-04-08T02:06:46;9.80;99.90
21244;DHT22;10780;50.942;4.028;2023-04-08T02:09:12;9.70;99.90
21244;DHT22;10780;50.942;4.028;2023-04-08T02:11:37;9.70;99.90
21244;DHT22;10780;50.942;4.028;2023-04-08T02:14:03;9.80;99.90
21244;DHT22;10780;50.942;4.028;2023-04-08T02:16:35;9.60;99.90
21244;DHT22;10780;50.942;4.028;2023-04-08T02:19:28;9.70;99.90
21244;DHT22;10780;50.942;4.028;2023-04-08T02:22:22;9.70;99.90
21244;DHT22;10780;50.942;4.028;2023-04-08T02:24:48;9.60;99.90
21244;DHT22;10780;50.942;4.028;2023-04-08T02:27:16;9.60;99.90
21244;DHT22;10780;50.942;4.028;2023-04-08T02:29:41;9.70;99.90
21244;DHT22;10780;50.942;4.028;2023-04-08T02:32:10;9.70;99.90
21244;DHT22;10780;50.942;4.028;2023-04-08T02:34:38;9.70;99.90
21244;DHT22;10780;50.942;4.028;2023-04-08T02:37:04;9.70;99.90
21244;DHT22;10780;50.942;4.028;2023-04-08T02:39:33;9.90;99.90
21244;DHT22;10780;50.942;4.028;2023-04-08T02:41:59;10.00;99.90
21244;DHT22;10780;50.942;4.028;2023-04-08T02:44:24;10.00;99.90
21244;DHT22;10780;50.942;4.028;2023-04-08T02:46:50;10.00;99.90
21244;DHT22;10780;50.942;4.028;2023-04-08T02:49:16;9.90;99.90
21244;DHT22;10780;50.942;4.028;2023-04-08T02:51:41;10.00;99.90
21244;DHT22;10780;50.942;4.028;2023-04-08T02:54:07;10.10;99.90
21244;DHT22;10780;50.942;4.028;2023-04-08T02:56:33;10.20;99.90
21244;DHT22;10780;50.942;4.028;2023-04-08T02:58:58;10.00;99.90
21244;DHT22;10780;50.942;4.028;2023-04-08T03:01:24;10.10;99.90
21244;DHT22;10780;50.942;4.028;2023-04-08T03:03:49;10.10;99.90
21244;DHT22;10780;50.942;4.028;2023-04-08T03:06:15;10.10;99.90
21244;DHT22;10780;50.942;4.028;2023-04-08T03:08:41;9.90;99.90
21244;DHT22;10780;50.942;4.028;2023-04-08T03:11:06;10.10;99.90
21244;DHT22;10780;50.942;4.028;2023-04-08T03:13:32;10.00;99.90
21244;DHT22;10780;50.942;4.028;2023-04-08T03:15:58;10.20;99.90
21244;DHT22;10780;50.942;4.028;2023-04-08T03:18:24;10.40;99.90
21244;DHT22;10780;50.942;4.028;2023-04-08T03:20:50;10.50;99.90
21244;DHT22;10780;50.942;4.028;2023-04-08T03:23:16;10.40;99.90
21244;DHT22;10780;50.942;4.028;2023-04-08T03:25:41;10.40;99.90
21244;DHT22;10780;50.942;4.028;2023-04-08T03:28:07;10.50;99.90
21244;DHT22;10780;50.942;4.028;2023-04-08T03:30:33;10.50;99.90
21244;DHT22;10780;50.942;4.028;2023-04-08T03:32:58;10.40;99.90
21244;DHT22;10780;50.942;4.028;2023-04-08T03:35:24;10.30;99.90
21244;DHT22;10780;50.942;4.028;2023-04-08T03:37:50;10.20;99.90
21244;DHT22;10780;50.942;4.028;2023-04-08T03:40:15;10.30;99.90
21244;DHT22;10780;50.942;4.028;2023-04-08T03:42:41;10.20;99.90
21244;DHT22;10780;50.942;4.028;2023-04-08T03:45:07;10.10;99.90
21244;DHT22;10780;50.942;4.028;2023-04-08T03:47:33;10.20;99.90
21244;DHT22;10780;50.942;4.028;2023-04-08T03:49:58;10.00;99.90
21244;DHT22;10780;50.942;4.028;2023-04-08T03:52:24;9.80;99.90
21244;DHT22;10780;50.942;4.028;2023-04-08T03:54:50;9.70;99.90
21244;DHT22;10780;50.942;4.028;2023-04-08T03:57:15;9.70;99.90
21244;DHT22;10780;50.942;4.028;2023-04-08T03:59:41;9.60;99.90
21244;DHT22;10780;50.942;4.028;2023-04-08T04:02:07;9.60;99.90
21244;DHT22;10780;50.942;4.028;2023-04-08T04:04:33;9.70;99.90
21244;DHT22;10780;50.942;4.028;2023-04-08T04:07:00;9.80;99.90
21244;DHT22;10780;50.942;4.028;2023-04-08T04:09:25;9.90;99.90
21244;DHT22;10780;50.942;4.028;2023-04-08T04:11:51;9.90;99.90
21244;DHT22;10780;50.942;4.028;2023-04-08T04:14:17;9.80;99.90
21244;DHT22;10780;50.942;4.028;2023-04-08T04:16:42;9.80;99.90
21244;DHT22;10780;50.942;4.028;2023-04-08T04:19:08;9.60;99.90
21244;DHT22;10780;50.942;4.028;2023-04-08T04:21:33;9.70;99.90
21244;DHT22;10780;50.942;4.028;2023-04-08T04:23:59;9.80;99.90
21244;DHT22;10780;50.942;4.028;2023-04-08T04:26:25;9.70;99.90
21244;DHT22;10780;50.942;4.028;2023-04-08T04:28:50;9.70;99.90
21244;DHT22;10780;50.942;4.028;2023-04-08T04:31:20;9.60;99.90
21244;DHT22;10780;50.942;4.028;2023-04-08T04:33:46;9.70;99.90
21244;DHT22;10780;50.942;4.028;2023-04-08T04:36:13;9.70;99.90
21244;DHT22;10780;50.942;4.028;2023-04-08T04:38:38;9.90;99.90
21244;DHT22;10780;50.942;4.028;2023-04-08T04:41:04;10.00;99.90
21244;DHT22;10780;50.942;4.028;2023-04-08T04:43:30;10.00;99.90
21244;DHT22;10780;50.942;4.028;2023-04-08T04:45:55;10.10;99.90
21244;DHT22;10780;50.942;4.028;2023-04-08T04:48:22;10.20;99.90
21244;DHT22;10780;50.942;4.028;2023-04-08T04:50:58;10.00;99.90
21244;DHT22;10780;50.942;4.028;2023-04-08T04:53:24;9.90;99.90
21244;DHT22;10780;50.942;4.028;2023-04-08T04:55:50;10.00;99.90
21244;DHT22;10780;50.942;4.028;2023-04-08T04:58:16;9.80;99.90
21244;DHT22;10780;50.942;4.028;2023-04-08T05:00:42;9.60;99.90
21244;DHT22;10780;50.942;4.028;2023-04-08T05:03:08;9.60;99.90
21244;DHT22;10780;50.942;4.028;2023-04-08T05:05:34;9.70;99.90
21244;DHT22;10780;50.942;4.028;2023-04-08T05:08:00;9.80;99.90
21244;DHT22;10780;50.942;4.028;2023-04-08T05:10:25;9.80;99.90
21244;DHT22;10780;50.942;4.028;2023-04-08T05:12:51;9.60;99.90
21244;DHT22;10780;50.942;4.028;2023-04-08T05:15:17;9.70;99.90
21244;DHT22;10780;50.942;4.028;2023-04-08T05:17:42;9.90;99.90
21244;DHT22;10780;50.942;4.028;2023-04-08T05:20:08;10.00;99.90
21244;DHT22;10780;50.942;4.028;2023-04-08T05:22:34;10.00;99.90
21244;DHT22;10780;50.942;4.028;2023-04-08T05:24:59;10.10;99.90
21244;DHT22;10780;50.942;4.028;2023-04-08T05:27:25;10.20;99.90
21244;DHT22;10780;50.942;4.028;2023-04-08T05:29:51;10.20;99.90
21244;DHT22;10780;50.942;4.028;2023-04-08T05:32:17;10.10;99.90
21244;DHT22;10780;50.942;4.028;2023-04-08T05:34:43;10.20;99.90
21244;DHT22;10780;50.942;4.028;2023-04-08T05:37:09;10.30;99.90
21244;DHT22;10780;50.942;4.028;2023-04-08T05:39:34;10.30;99.90
21244;DHT22;10780;50.942;4.028;2023-04-08T05:42:00;10.30;99.90
21244;DHT22;10780;50.942;4.028;2023-04-08T05:44:26;10.40;99.90
21244;DHT22;10780;50.942;4.028;2023-04-08T05:46:52;10.40;99.90
21244;DHT22;10780;50.942;4.028;2023-04-08T05:49:18;10.40;99.90
21244;DHT22;10780;50.942;4.028;2023-04-08T05:51:43;10.40;99.90
21244;DHT22;10780;50.942;4.028;2023-04-08T05:54:09;10.20;99.90
21244;DHT22;10780;50.942;4.028;2023-04-08T05:56:35;10.10;99.90
21244;DHT22;10780;50.942;4.028;2023-04-08T05:59:00;10.20;99.90
21244;DHT22;10780;50.942;4.028;2023-04-08T06:01:26;10.10;99.90
21244;DHT22;10780;50.942;4.028;2023-04-08T06:03:52;10.10;99.90
21244;DHT22;10780;50.942;4.028;2023-04-08T06:06:20;10.20;99.90
21244;DHT22;10780;50.942;4.028;2023-04-08T06:08:45;10.20;99.90
21244;DHT22;10780;50.942;4.028;2023-04-08T06:11:11;10.30;99.90
21244;DHT22;10780;50.942;4.028;2023-04-08T06:13:37;10.30;99.90
21244;DHT22;10780;50.942;4.028;2023-04-08T06:16:10;10.20;99.90
21244;DHT22;10780;50.942;4.028;2023-04-08T06:18:36;10.20;99.90
21244;DHT22;10780;50.942;4.028;2023-04-08T06:21:01;10.20;99.90
21244;DHT22;10780;50.942;4.028;2023-04-08T06:23:27;10.20;99.90
21244;DHT22;10780;50.942;4.028;2023-04-08T06:25:53;10.20;99.90
21244;DHT22;10780;50.942;4.028;2023-04-08T06:28:18;10.10;99.90
21244;DHT22;10780;50.942;4.028;2023-04-08T06:30:44;10.30;99.90
21244;DHT22;10780;50.942;4.028;2023-04-08T06:33:10;10.40;99.90
21244;DHT22;10780;50.942;4.028;2023-04-08T06:35:35;10.30;99.90
21244;DHT22;10780;50.942;4.028;2023-04-08T06:38:02;10.00;99.90
21244;DHT22;10780;50.942;4.028;2023-04-08T06:40:28;10.00;99.90
21244;DHT22;10780;50.942;4.028;2023-04-08T06:42:53;9.90;99.90
21244;DHT22;10780;50.942;4.028;2023-04-08T06:45:20;9.90;99.90
21244;DHT22;10780;50.942;4.028;2023-04-08T06:47:45;9.70;99.90
21244;DHT22;10780;50.942;4.028;2023-04-08T06:50:11;9.70;99.90
21244;DHT22;10780;50.942;4.028;2023-04-08T06:52:37;9.50;99.90
21244;DHT22;10780;50.942;4.028;2023-04-08T06:55:02;9.60;99.90
21244;DHT22;10780;50.942;4.028;2023-04-08T06:57:28;9.60;99.90
21244;DHT22;10780;50.942;4.028;2023-04-08T06:59:54;9.60;99.90
21244;DHT22;10780;50.942;4.028;2023-04-08T07:02:20;9.60;99.90
21244;DHT22;10780;50.942;4.028;2023-04-08T07:04:47;9.70;99.90
21244;DHT22;10780;50.942;4.028;2023-04-08T07:07:13;9.80;99.90
21244;DHT22;10780;50.942;4.028;2023-04-08T07:09:38;9.90;99.90
21244;DHT22;10780;50.942;4.028;2023-04-08T07:12:05;10.00;99.90
21244;DHT22;10780;50.942;4.028;2023-04-08T07:14:31;10.10;99.90
21244;DHT22;10780;50.942;4.028;2023-04-08T07:16:57;10.20;99.90
21244;DHT22;10780;50.942;4.028;2023-04-08T07:19:23;10.10;99.90
21244;DHT22;10780;50.942;4.028;2023-04-08T07:21:48;10.20;99.90
21244;DHT22;10780;50.942;4.028;2023-04-08T07:24:14;10.40;99.90
21244;DHT22;10780;50.942;4.028;2023-04-08T07:26:40;10.50;99.90
21244;DHT22;10780;50.942;4.028;2023-04-08T07:29:06;10.60;99.90
21244;DHT22;10780;50.942;4.028;2023-04-08T07:31:32;10.70;99.90
21244;DHT22;10780;50.942;4.028;2023-04-08T07:33:57;10.40;99.90
21244;DHT22;10780;50.942;4.028;2023-04-08T07:36:23;10.20;99.90
21244;DHT22;10780;50.942;4.028;2023-04-08T07:38:49;10.20;99.90
21244;DHT22;10780;50.942;4.028;2023-04-08T07:41:15;10.30;99.90
21244;DHT22;10780;50.942;4.028;2023-04-08T07:43:40;10.50;99.90
21244;DHT22;10780;50.942;4.028;2023-04-08T07:46:06;10.40;99.90
21244;DHT22;10780;50.942;4.028;2023-04-08T07:48:34;10.40;99.90
21244;DHT22;10780;50.942;4.028;2023-04-08T07:51:07;10.50;99.90
21244;DHT22;10780;50.942;4.028;2023-04-08T07:53:32;10.40;99.90
21244;DHT22;10780;50.942;4.028;2023-04-08T07:55:59;10.60;99.90
21244;DHT22;10780;50.942;4.028;2023-04-08T07:58:25;10.60;99.90
21244;DHT22;10780;50.942;4.028;2023-04-08T08:00:51;10.80;99.90
21244;DHT22;10780;50.942;4.028;2023-04-08T08:03:17;11.10;99.90
21244;DHT22;10780;50.942;4.028;2023-04-08T08:05:42;11.20;99.90
21244;DHT22;10780;50.942;4.028;2023-04-08T08:08:08;11.40;99.90
21244;DHT22;10780;50.942;4.028;2023-04-08T08:10:36;11.60;99.90
21244;DHT22;10780;50.942;4.028;2023-04-08T08:13:03;11.60;99.90
21244;DHT22;10780;50.942;4.028;2023-04-08T08:15:28;11.60;99.90
21244;DHT22;10780;50.942;4.028;2023-04-08T08:17:54;11.50;99.90
21244;DHT22;10780;50.942;4.028;2023-04-08T08:20:20;11.70;99.90
21244;DHT22;10780;50.942;4.028;2023-04-08T08:22:45;11.80;99.90
21244;DHT22;10780;50.942;4.028;2023-04-08T08:25:11;12.00;99.90
21244;DHT22;10780;50.942;4.028;2023-04-08T08:27:36;11.60;99.90
21244;DHT22;10780;50.942;4.028;2023-04-08T08:30:04;11.30;99.90
21244;DHT22;10780;50.942;4.028;2023-04-08T08:32:30;11.20;99.90
21244;DHT22;10780;50.942;4.028;2023-04-08T08:34:56;11.20;99.90
21244;DHT22;10780;50.942;4.028;2023-04-08T08:37:21;11.60;99.90
21244;DHT22;10780;50.942;4.028;2023-04-08T08:39:47;11.40;99.90
21244;DHT22;10780;50.942;4.028;2023-04-08T08:42:23;11.50;99.90
21244;DHT22;10780;50.942;4.028;2023-04-08T08:44:49;11.50;99.90
21244;DHT22;10780;50.942;4.028;2023-04-08T08:47:16;11.50;99.90
21244;DHT22;10780;50.942;4.028;2023-04-08T08:49:42;11.50;99.90
21244;DHT22;10780;50.942;4.028;2023-04-08T08:52:08;11.70;99.90
21244;DHT22;10780;50.942;4.028;2023-04-08T08:54:34;11.80;99.90
21244;DHT22;10780;50.942;4.028;2023-04-08T08:57:00;11.80;99.90
21244;DHT22;10780;50.942;4.028;2023-04-08T08:59:26;11.70;99.90
21244;DHT22;10780;50.942;4.028;2023-04-08T09:01:51;11.80;99.90
21244;DHT22;10780;50.942;4.028;2023-04-08T09:04:19;11.80;99.90
21244;DHT22;10780;50.942;4.028;2023-04-08T09:06:49;11.70;99.90
21244;DHT22;10780;50.942;4.028;2023-04-08T09:09:17;11.60;99.90
21244;DHT22;10780;50.942;4.028;2023-04-08T09:11:44;11.50;99.90
21244;DHT22;10780;50.942;4.028;2023-04-08T09:14:23;11.50;99.90
21244;DHT22;10780;50.942;4.028;2023-04-08T09:16:50;11.50;99.90
21244;DHT22;10780;50.942;4.028;2023-04-08T09:19:16;11.20;99.90
21244;DHT22;10780;50.942;4.028;2023-04-08T09:21:42;11.40;99.90
21244;DHT22;10780;50.942;4.028;2023-04-08T09:24:09;11.50;99.90
21244;DHT22;10780;50.942;4.028;2023-04-08T09:26:51;11.70;99.90
21244;DHT22;10780;50.942;4.028;2023-04-08T09:29:16;11.70;99.90
21244;DHT22;10780;50.942;4.028;2023-04-08T09:31:42;11.70;99.90
21244;DHT22;10780;50.942;4.028;2023-04-08T09:34:12;11.90;99.90
21244;DHT22;10780;50.942;4.028;2023-04-08T09:36:39;11.80;99.90
21244;DHT22;10780;50.942;4.028;2023-04-08T09:39:05;11.80;99.90
21244;DHT22;10780;50.942;4.028;2023-04-08T09:41:35;12.00;99.90
21244;DHT22;10780;50.942;4.028;2023-04-08T09:44:06;11.90;99.90
21244;DHT22;10780;50.942;4.028;2023-04-08T09:46:38;11.90;99.90
21244;DHT22;10780;50.942;4.028;2023-04-08T09:49:29;12.00;99.90
21244;DHT22;10780;50.942;4.028;2023-04-08T09:52:14;12.10;99.90
21244;DHT22;10780;50.942;4.028;2023-04-08T09:54:59;12.10;99.90
21244;DHT22;10780;50.942;4.028;2023-04-08T10:00:15;12.50;99.90
21244;DHT22;10780;50.942;4.028;2023-04-08T10:03:47;12.30;99.90
21244;DHT22;10780;50.942;4.028;2023-04-08T10:05:47;12.30;99.90
21244;DHT22;10780;50.942;4.028;2023-04-08T10:08:14;12.10;99.90
21244;DHT22;10780;50.942;4.028;2023-04-08T10:10:40;12.00;99.90
21244;DHT22;10780;50.942;4.028;2023-04-08T10:13:07;11.90;99.90
21244;DHT22;10780;50.942;4.028;2023-04-08T10:15:33;12.10;99.90
21244;DHT22;10780;50.942;4.028;2023-04-08T10:23:10;12.90;99.90
21244;DHT22;10780;50.942;4.028;2023-04-08T10:25:39;12.70;99.90
21244;DHT22;10780;50.942;4.028;2023-04-08T10:33:14;12.80;99.90
21244;DHT22;10780;50.942;4.028;2023-04-08T10:35:47;12.90;99.90
21244;DHT22;10780;50.942;4.028;2023-04-08T10:38:13;13.20;99.90
21244;DHT22;10780;50.942;4.028;2023-04-08T10:40:41;13.30;99.90
21244;DHT22;10780;50.942;4.028;2023-04-08T10:43:11;13.30;99.90
21244;DHT22;10780;50.942;4.028;2023-04-08T10:45:38;13.10;99.90
21244;DHT22;10780;50.942;4.028;2023-04-08T10:48:19;13.00;99.90
21244;DHT22;10780;50.942;4.028;2023-04-08T10:50:52;12.80;99.90
21244;DHT22;10780;50.942;4.028;2023-04-08T10:53:33;12.90;99.90
21244;DHT22;10780;50.942;4.028;2023-04-08T10:56:04;12.80;99.90
21244;DHT22;10780;50.942;4.028;2023-04-08T10:58:31;12.90;99.90
21244;DHT22;10780;50.942;4.028;2023-04-08T11:01:04;12.80;99.90
21244;DHT22;10780;50.942;4.028;2023-04-08T11:03:32;12.80;99.90
21244;DHT22;10780;50.942;4.028;2023-04-08T11:06:01;13.00;99.90
21244;DHT22;10780;50.942;4.028;2023-04-08T11:08:31;13.10;99.90
21244;DHT22;10780;50.942;4.028;2023-04-08T11:10:57;13.20;99.90
21244;DHT22;10780;50.942;4.028;2023-04-08T11:13:25;13.00;99.90
21244;DHT22;10780;50.942;4.028;2023-04-08T11:15:51;13.00;99.90
21244;DHT22;10780;50.942;4.028;2023-04-08T11:18:17;13.40;99.90
21244;DHT22;10780;50.942;4.028;2023-04-08T11:20:43;13.40;99.90
21244;DHT22;10780;50.942;4.028;2023-04-08T11:23:15;13.20;99.90
21244;DHT22;10780;50.942;4.028;2023-04-08T11:25:42;13.50;99.90
21244;DHT22;10780;50.942;4.028;2023-04-08T11:28:08;13.20;99.90
21244;DHT22;10780;50.942;4.028;2023-04-08T11:30:34;13.40;99.90
21244;DHT22;10780;50.942;4.028;2023-04-08T11:33:00;13.30;99.90
21244;DHT22;10780;50.942;4.028;2023-04-08T11:35:29;13.50;99.90
21244;DHT22;10780;50.942;4.028;2023-04-08T11:37:56;13.70;99.90
21244;DHT22;10780;50.942;4.028;2023-04-08T11:40:21;13.70;99.90
21244;DHT22;10780;50.942;4.028;2023-04-08T11:42:52;13.70;99.90
21244;DHT22;10780;50.942;4.028;2023-04-08T11:45:19;13.80;99.90
21244;DHT22;10780;50.942;4.028;2023-04-08T11:47:48;14.20;99.90
21244;DHT22;10780;50.942;4.028;2023-04-08T11:50:31;14.40;99.90
21244;DHT22;10780;50.942;4.028;2023-04-08T11:52:57;14.80;99.90
21244;DHT22;10780;50.942;4.028;2023-04-08T11:55:28;14.90;99.90
21244;DHT22;10780;50.942;4.028;2023-04-08T11:57:56;14.80;99.90
21244;DHT22;10780;50.942;4.028;2023-04-08T12:00:22;14.70;99.90
21244;DHT22;10780;50.942;4.028;2023-04-08T12:02:48;14.30;99.90
21244;DHT22;10780;50.942;4.028;2023-04-08T12:05:15;14.70;99.90
21244;DHT22;10780;50.942;4.028;2023-04-08T12:07:42;14.80;99.90
21244;DHT22;10780;50.942;4.028;2023-04-08T12:10:09;15.20;99.90
21244;DHT22;10780;50.942;4.028;2023-04-08T12:12:35;15.40;99.90
21244;DHT22;10780;50.942;4.028;2023-04-08T12:15:00;15.30;99.90
21244;DHT22;10780;50.942;4.028;2023-04-08T12:17:27;15.10;99.90
21244;DHT22;10780;50.942;4.028;2023-04-08T12:19:52;15.40;99.90
21244;DHT22;10780;50.942;4.028;2023-04-08T12:22:18;14.90;99.90
21244;DHT22;10780;50.942;4.028;2023-04-08T12:24:44;15.10;99.90
21244;DHT22;10780;50.942;4.028;2023-04-08T12:27:09;15.10;99.90
21244;DHT22;10780;50.942;4.028;2023-04-08T12:29:35;15.30;99.90
21244;DHT22;10780;50.942;4.028;2023-04-08T12:32:01;15.40;99.90
21244;DHT22;10780;50.942;4.028;2023-04-08T12:34:27;15.80;99.90
21244;DHT22;10780;50.942;4.028;2023-04-08T12:36:53;15.80;99.90
21244;DHT22;10780;50.942;4.028;2023-04-08T12:39:19;15.70;99.90
21244;DHT22;10780;50.942;4.028;2023-04-08T12:41:45;15.70;99.90
21244;DHT22;10780;50.942;4.028;2023-04-08T12:44:11;15.30;99.90
21244;DHT22;10780;50.942;4.028;2023-04-08T12:46:37;15.00;99.90
21244;DHT22;10780;50.942;4.028;2023-04-08T12:49:02;15.00;99.90
21244;DHT22;10780;50.942;4.028;2023-04-08T12:51:28;14.90;99.90
21244;DHT22;10780;50.942;4.028;2023-04-08T12:53:54;14.90;99.90
21244;DHT22;10780;50.942;4.028;2023-04-08T12:56:19;15.70;99.90
21244;DHT22;10780;50.942;4.028;2023-04-08T12:58:45;16.40;99.90
21244;DHT22;10780;50.942;4.028;2023-04-08T13:01:11;16.50;99.90
21244;DHT22;10780;50.942;4.028;2023-04-08T13:03:37;16.30;99.90
21244;DHT22;10780;50.942;4.028;2023-04-08T13:06:03;16.70;99.90
21244;DHT22;10780;50.942;4.028;2023-04-08T13:08:28;16.80;99.90
21244;DHT22;10780;50.942;4.028;2023-04-08T13:10:54;16.20;99.90
21244;DHT22;10780;50.942;4.028;2023-04-08T13:13:20;15.80;99.90
21244;DHT22;10780;50.942;4.028;2023-04-08T13:15:45;15.60;99.90
21244;DHT22;10780;50.942;4.028;2023-04-08T13:18:11;15.70;99.90
21244;DHT22;10780;50.942;4.028;2023-04-08T13:20:37;15.60;99.90
21244;DHT22;10780;50.942;4.028;2023-04-08T13:23:03;15.20;99.90
21244;DHT22;10780;50.942;4.028;2023-04-08T13:25:28;15.40;99.90
21244;DHT22;10780;50.942;4.028;2023-04-08T13:27:54;15.70;99.90
21244;DHT22;10780;50.942;4.028;2023-04-08T13:30:20;15.70;99.90
21244;DHT22;10780;50.942;4.028;2023-04-08T13:32:46;15.60;99.90
21244;DHT22;10780;50.942;4.028;2023-04-08T13:35:11;15.80;99.90
21244;DHT22;10780;50.942;4.028;2023-04-08T13:37:37;15.30;99.90
21244;DHT22;10780;50.942;4.028;2023-04-08T13:40:03;15.50;99.90
21244;DHT22;10780;50.942;4.028;2023-04-08T13:42:29;15.40;99.90
21244;DHT22;10780;50.942;4.028;2023-04-08T13:44:57;15.50;99.90
21244;DHT22;10780;50.942;4.028;2023-04-08T13:47:23;15.90;99.90
21244;DHT22;10780;50.942;4.028;2023-04-08T13:49:49;16.10;99.90
21244;DHT22;10780;50.942;4.028;2023-04-08T13:52:15;16.20;99.90
21244;DHT22;10780;50.942;4.028;2023-04-08T13:54:40;15.70;99.90
21244;DHT22;10780;50.942;4.028;2023-04-08T13:57:06;15.50;99.90
21244;DHT22;10780;50.942;4.028;2023-04-08T13:59:32;15.70;99.90
21244;DHT22;10780;50.942;4.028;2023-04-08T14:01:57;15.60;99.90
21244;DHT22;10780;50.942;4.028;2023-04-08T14:04:26;15.10;99.90
21244;DHT22;10780;50.942;4.028;2023-04-08T14:06:52;14.90;99.90
21244;DHT22;10780;50.942;4.028;2023-04-08T14:09:18;15.20;99.90
21244;DHT22;10780;50.942;4.028;2023-04-08T14:11:44;15.30;99.90
21244;DHT22;10780;50.942;4.028;2023-04-08T14:14:11;15.10;99.90
21244;DHT22;10780;50.942;4.028;2023-04-08T14:16:36;15.00;99.90
21244;DHT22;10780;50.942;4.028;2023-04-08T14:19:02;14.70;99.90
21244;DHT22;10780;50.942;4.028;2023-04-08T14:21:29;14.70;99.90
21244;DHT22;10780;50.942;4.028;2023-04-08T14:23:56;14.90;99.90
21244;DHT22;10780;50.942;4.028;2023-04-08T14:26:22;15.40;99.90
21244;DHT22;10780;50.942;4.028;2023-04-08T14:28:48;15.60;99.90
21244;DHT22;10780;50.942;4.028;2023-04-08T14:31:13;15.80;99.90
21244;DHT22;10780;50.942;4.028;2023-04-08T14:33:40;16.00;99.90
21244;DHT22;10780;50.942;4.028;2023-04-08T14:36:07;16.20;99.90
21244;DHT22;10780;50.942;4.028;2023-04-08T14:38:33;15.80;99.90
21244;DHT22;10780;50.942;4.028;2023-04-08T14:40:58;16.50;99.90
21244;DHT22;10780;50.942;4.028;2023-04-08T14:43:24;17.10;99.90
21244;DHT22;10780;50.942;4.028;2023-04-08T14:45:49;17.80;99.90
21244;DHT22;10780;50.942;4.028;2023-04-08T14:48:16;18.60;99.90
21244;DHT22;10780;50.942;4.028;2023-04-08T14:50:42;19.00;99.90
21244;DHT22;10780;50.942;4.028;2023-04-08T14:53:07;18.40;99.90
21244;DHT22;10780;50.942;4.028;2023-04-08T14:55:33;18.50;99.90
21244;DHT22;10780;50.942;4.028;2023-04-08T14:57:59;18.50;99.90
21244;DHT22;10780;50.942;4.028;2023-04-08T15:00:25;18.50;99.90
21244;DHT22;10780;50.942;4.028;2023-04-08T15:02:50;18.10;99.90
21244;DHT22;10780;50.942;4.028;2023-04-08T15:05:16;18.30;99.90
21244;DHT22;10780;50.942;4.028;2023-04-08T15:07:41;18.60;99.90
21244;DHT22;10780;50.942;4.028;2023-04-08T15:10:08;19.00;99.90
21244;DHT22;10780;50.942;4.028;2023-04-08T15:12:34;19.70;99.90
21244;DHT22;10780;50.942;4.028;2023-04-08T15:15:01;19.80;99.90
21244;DHT22;10780;50.942;4.028;2023-04-08T15:17:26;18.90;99.90
21244;DHT22;10780;50.942;4.028;2023-04-08T15:19:52;18.50;99.90
21244;DHT22;10780;50.942;4.028;2023-04-08T15:22:18;18.10;99.90
21244;DHT22;10780;50.942;4.028;2023-04-08T15:24:43;17.30;99.90
21244;DHT22;10780;50.942;4.028;2023-04-08T15:27:09;16.60;99.90
21244;DHT22;10780;50.942;4.028;2023-04-08T15:29:35;16.00;99.90
21244;DHT22;10780;50.942;4.028;2023-04-08T15:32:01;15.50;99.90
21244;DHT22;10780;50.942;4.028;2023-04-08T15:34:26;15.60;99.90
21244;DHT22;10780;50.942;4.028;2023-04-08T15:36:53;15.50;99.90
21244;DHT22;10780;50.942;4.028;2023-04-08T15:39:21;15.50;99.90
21244;DHT22;10780;50.942;4.028;2023-04-08T15:41:47;15.70;99.90
21244;DHT22;10780;50.942;4.028;2023-04-08T15:44:13;15.80;99.90
21244;DHT22;10780;50.942;4.028;2023-04-08T15:46:38;15.80;99.90
21244;DHT22;10780;50.942;4.028;2023-04-08T15:49:04;16.40;99.90
21244;DHT22;10780;50.942;4.028;2023-04-08T15:51:31;16.90;99.90
21244;DHT22;10780;50.942;4.028;2023-04-08T15:53:57;17.70;99.90
21244;DHT22;10780;50.942;4.028;2023-04-08T15:56:22;18.20;99.90